createdAt,value
2022-08-04T00:01:57.375Z,5.80
2022-08-04T00:04:45.129Z,6.30
2022-08-04T00:07:44.023Z,5.75
2022-08-04T00:10:17.943Z,5.82
2022-08-04T00:12:52.418Z,6.15
2022-08-04T00:15:21.275Z,5.47
2022-08-04T00:17:59.726Z,5.60
2022-08-04T00:20:32.881Z,6.20
2022-08-04T00:23:02.982Z,6.03
2022-08-04T00:25:31.298Z,6.70
2022-08-04T00:28:02.692Z,6.22
2022-08-04T00:30:31.536Z,6.65
2022-08-04T00:33:00.566Z,7.53
2022-08-04T00:35:29.679Z,6.85
2022-08-04T00:37:58.480Z,6.38
2022-08-04T00:41:00.091Z,6.68
2022-08-04T00:43:56.532Z,6.72
2022-08-04T00:46:39.116Z,6.18
2022-08-04T00:49:51.583Z,6.55
2022-08-04T00:52:48.137Z,6.45
2022-08-04T00:55:42.426Z,6.13
2022-08-04T00:58:55.810Z,6.20
2022-08-04T01:01:52.615Z,6.43
2022-08-04T01:04:57.258Z,6.07
2022-08-04T01:07:54.042Z,5.53
2022-08-04T01:10:31.396Z,5.82
2022-08-04T01:13:46.918Z,5.43
2022-08-04T01:16:18.493Z,5.43
2022-08-04T01:19:12.774Z,5.57
2022-08-04T01:22:34.525Z,5.43
2022-08-04T01:25:20.522Z,6.03
2022-08-04T01:28:15.509Z,6.38
2022-08-04T01:30:49.469Z,6.57
2022-08-04T01:35:57.023Z,5.13
2022-08-04T01:38:40.819Z,5.40
2022-08-04T01:41:19.494Z,5.75
2022-08-04T01:44:03.409Z,5.57
2022-08-04T01:46:35.562Z,5.78
2022-08-04T01:49:06.710Z,5.25
2022-08-04T01:51:39.653Z,6.20
2022-08-04T01:54:09.503Z,5.07
2022-08-04T01:56:37.781Z,4.70
2022-08-04T01:59:06.871Z,4.50
2022-08-04T02:01:37.546Z,5.28
2022-08-04T02:04:20.160Z,4.37
2022-08-04T02:07:40.929Z,4.43
2022-08-04T02:10:46.730Z,4.47
2022-08-04T02:13:52.652Z,4.25
2022-08-04T02:16:45.246Z,4.22
2022-08-04T02:19:26.633Z,4.30
2022-08-04T02:22:18.013Z,5.05
2022-08-04T02:25:09.229Z,4.30
2022-08-04T02:28:13.339Z,4.65
2022-08-04T02:30:48.320Z,4.57
2022-08-04T02:33:26.960Z,4.10
2022-08-04T02:36:02.255Z,3.97
2022-08-04T02:38:42.415Z,4.55
2022-08-04T02:41:11.616Z,4.47
2022-08-04T02:43:51.211Z,4.75
2022-08-04T02:46:22.887Z,4.57
2022-08-04T02:48:56.248Z,5.05
2022-08-04T02:51:42.987Z,4.85
2022-08-04T02:54:10.990Z,4.60
2022-08-04T02:56:41.100Z,4.57
2022-08-04T02:59:12.642Z,4.75
2022-08-04T03:01:56.855Z,4.28
2022-08-04T03:04:44.293Z,4.15
2022-08-04T03:08:03.733Z,3.95
2022-08-04T03:10:56.600Z,4.15
2022-08-04T03:14:24.160Z,4.07
2022-08-04T03:17:12.121Z,3.70
2022-08-04T03:20:05.650Z,3.75
2022-08-04T03:23:11.993Z,3.90
2022-08-04T03:26:08.505Z,3.80
2022-08-04T03:29:36.353Z,3.75
2022-08-04T03:33:06.893Z,3.90
2022-08-04T03:36:26.104Z,3.92
2022-08-04T03:39:53.549Z,4.00
2022-08-04T03:42:57.746Z,3.45
2022-08-04T03:45:57.678Z,3.90
2022-08-04T03:48:46.499Z,3.50
2022-08-04T03:51:55.178Z,4.40
2022-08-04T03:54:57.221Z,3.85
2022-08-04T04:00:27.343Z,4.28
2022-08-04T04:03:28.208Z,4.07
2022-08-04T04:06:30.014Z,4.10
2022-08-04T04:09:50.898Z,3.47
2022-08-04T04:12:33.171Z,4.20
2022-08-04T04:15:31.997Z,4.00
2022-08-04T04:18:23.962Z,3.95
2022-08-04T04:24:52.133Z,4.72
2022-08-04T04:27:32.809Z,4.25
2022-08-04T04:30:12.878Z,3.85
2022-08-04T04:33:28.615Z,4.10
2022-08-04T04:36:09.936Z,3.80
2022-08-04T04:39:25.969Z,3.15
2022-08-04T04:42:33.425Z,3.17
2022-08-04T04:45:32.098Z,3.58
2022-08-04T04:48:28.174Z,3.40
2022-08-04T04:51:34.276Z,3.50
2022-08-04T04:54:51.671Z,3.35
2022-08-04T04:57:54.541Z,3.20
2022-08-04T05:00:14.342Z,3.00
2022-08-04T05:03:03.916Z,3.03
2022-08-04T05:05:44.807Z,2.80
2022-08-04T05:09:07.033Z,2.88
2022-08-04T05:12:59.211Z,2.60
2022-08-04T05:15:25.480Z,2.10
2022-08-04T05:17:57.559Z,2.40
2022-08-04T05:20:34.671Z,2.33
2022-08-04T05:23:08.648Z,2.45
2022-08-04T05:26:10.730Z,2.70
2022-08-04T05:28:55.241Z,2.25
2022-08-04T05:31:40.234Z,2.22
2022-08-04T05:34:20.945Z,1.92
2022-08-04T05:36:53.507Z,2.10
2022-08-04T05:39:37.618Z,2.00
2022-08-04T05:42:07.313Z,1.90
2022-08-04T05:44:36.349Z,2.17
2022-08-04T05:47:05.927Z,2.30
2022-08-04T05:49:35.466Z,2.05
2022-08-04T05:52:05.198Z,2.50
2022-08-04T05:54:35.751Z,2.58
2022-08-04T05:57:08.802Z,2.47
2022-08-04T05:59:42.545Z,3.22
2022-08-04T06:02:11.579Z,2.65
2022-08-04T06:04:42.700Z,2.58
2022-08-04T06:09:43.214Z,2.42
2022-08-04T06:12:36.417Z,2.60
2022-08-04T06:15:08.375Z,2.45
2022-08-04T06:18:35.119Z,2.47
2022-08-04T06:20:50.090Z,1.95
2022-08-04T06:23:21.481Z,2.40
2022-08-04T06:25:57.163Z,2.20
2022-08-04T06:28:28.613Z,2.10
2022-08-04T06:32:30.316Z,1.88
2022-08-04T06:33:54.302Z,1.77
2022-08-04T06:36:23.152Z,1.70
2022-08-04T06:38:58.718Z,1.73
2022-08-04T06:41:29.841Z,1.80
2022-08-04T06:44:06.454Z,1.40
2022-08-04T06:46:38.459Z,1.40
2022-08-04T06:49:06.948Z,1.20
2022-08-04T06:51:46.945Z,1.20
2022-08-04T06:54:17.473Z,2.08
2022-08-04T06:56:47.267Z,1.10
2022-08-04T06:59:17.361Z,1.27
2022-08-04T07:01:47.667Z,1.40
2022-08-04T07:04:15.915Z,1.48
2022-08-04T07:06:43.983Z,1.23
2022-08-04T07:09:12.444Z,1.40
2022-08-04T07:11:44.297Z,1.00
2022-08-04T07:14:14.201Z,1.08
2022-08-04T07:16:42.913Z,1.23
2022-08-04T07:19:13.744Z,1.23
2022-08-04T07:22:16.846Z,1.10
2022-08-04T07:24:36.737Z,1.20
2022-08-04T07:27:07.001Z,1.30
2022-08-04T07:29:40.250Z,1.13
2022-08-04T07:32:11.312Z,1.20
2022-08-04T07:34:40.978Z,1.30
2022-08-04T07:37:10.523Z,1.10
2022-08-04T07:39:47.855Z,1.10
2022-08-04T07:42:20.547Z,0.93
2022-08-04T07:44:49.420Z,1.00
2022-08-04T07:47:20.983Z,1.08
2022-08-04T07:49:56.534Z,0.98
2022-08-04T07:52:28.050Z,1.15
2022-08-04T07:54:56.581Z,1.00
2022-08-04T07:57:40.752Z,1.25
2022-08-04T08:00:15.116Z,0.93
2022-08-04T08:02:45.789Z,0.80
2022-08-04T08:05:17.330Z,1.10
2022-08-04T08:07:54.299Z,0.98
2022-08-04T08:10:24.680Z,1.13
2022-08-04T08:12:55.176Z,0.90
2022-08-04T08:15:23.394Z,1.02
2022-08-04T08:17:59.096Z,0.90
2022-08-04T08:20:31.796Z,1.50
2022-08-04T08:23:02.415Z,0.93
2022-08-04T08:25:33.291Z,1.05
2022-08-04T08:28:05.178Z,1.10
2022-08-04T08:30:34.619Z,0.98
2022-08-04T08:33:08.329Z,0.90
2022-08-04T08:35:54.934Z,0.88
2022-08-04T08:38:49.191Z,0.80
2022-08-04T08:42:09.322Z,1.08
2022-08-04T08:45:24.790Z,0.97
2022-08-04T08:48:47.258Z,1.45
2022-08-04T08:51:42.645Z,1.00
2022-08-04T08:55:16.354Z,1.17
2022-08-04T08:58:29.839Z,1.02
2022-08-04T09:01:13.272Z,0.80
2022-08-04T09:04:02.824Z,1.13
2022-08-04T09:07:04.935Z,1.02
2022-08-04T09:09:51.558Z,1.10
2022-08-04T09:12:50.902Z,0.90
2022-08-04T09:15:45.574Z,1.38
2022-08-04T09:18:29.672Z,1.10
2022-08-04T09:21:17.896Z,1.10
2022-08-04T09:24:01.006Z,1.05
2022-08-04T09:26:41.086Z,0.90
2022-08-04T09:29:39.846Z,1.30
2022-08-04T09:32:38.948Z,1.17
2022-08-04T09:35:42.320Z,1.15
2022-08-04T09:38:36.334Z,1.20
2022-08-04T09:41:48.801Z,1.10
2022-08-04T09:44:54.257Z,1.40
2022-08-04T09:47:41.118Z,1.13
2022-08-04T09:50:34.245Z,1.45
2022-08-04T09:53:30.554Z,1.15
2022-08-04T09:56:10.945Z,1.08
2022-08-04T09:59:24.342Z,1.05
2022-08-04T10:02:00.236Z,1.20
2022-08-04T10:04:32.018Z,1.13
2022-08-04T10:07:33.579Z,1.40
2022-08-04T10:10:28.933Z,1.20
2022-08-04T10:13:24.750Z,1.10
2022-08-04T10:16:17.377Z,1.20
2022-08-04T10:19:21.118Z,1.10
2022-08-04T10:22:29.253Z,1.33
2022-08-04T10:28:30.684Z,0.98
2022-08-04T10:31:10.177Z,1.20
2022-08-04T10:33:51.497Z,1.33
2022-08-04T10:36:27.795Z,1.13
2022-08-04T10:39:42.234Z,1.30
2022-08-04T10:42:23.065Z,1.00
2022-08-04T10:45:19.969Z,1.20
2022-08-04T10:48:35.000Z,1.50
2022-08-04T10:51:25.444Z,1.00
2022-08-04T10:54:02.877Z,1.00
2022-08-04T10:56:42.056Z,1.20
2022-08-04T10:59:19.305Z,1.40
2022-08-04T11:02:02.768Z,1.20
2022-08-04T11:04:47.868Z,1.10
2022-08-04T11:07:18.072Z,1.10
2022-08-04T11:09:46.844Z,1.25
2022-08-04T11:12:25.986Z,1.20
2022-08-04T11:15:18.917Z,1.10
2022-08-04T11:18:17.038Z,0.90
2022-08-04T11:21:16.672Z,1.20
2022-08-04T11:24:20.720Z,1.20
2022-08-04T11:27:02.017Z,1.30
2022-08-04T11:30:01.539Z,1.00
2022-08-04T11:33:19.588Z,1.15
2022-08-04T11:35:58.924Z,1.20
2022-08-04T11:39:08.774Z,1.40
2022-08-04T11:42:09.343Z,1.30
2022-08-04T11:44:49.519Z,1.50
2022-08-04T11:47:33.288Z,1.40
2022-08-04T11:50:25.583Z,1.75
2022-08-04T11:52:57.324Z,2.38
2022-08-04T11:55:28.871Z,2.80
2022-08-04T11:57:57.238Z,2.20
2022-08-04T12:00:30.375Z,1.83
2022-08-04T12:04:00.475Z,2.00
2022-08-04T12:11:09.582Z,2.70
2022-08-04T12:13:58.817Z,2.15
2022-08-04T12:16:39.076Z,2.05
2022-08-04T12:19:23.315Z,2.63
2022-08-04T12:21:57.091Z,2.25
2022-08-04T12:24:45.683Z,2.55
2022-08-04T12:27:18.927Z,1.73
2022-08-04T12:30:57.805Z,1.80
2022-08-04T12:32:53.500Z,1.45
2022-08-04T12:35:39.449Z,1.50
2022-08-04T12:38:32.868Z,1.85
2022-08-04T12:41:05.124Z,1.58
2022-08-04T12:43:47.361Z,1.50
2022-08-04T12:46:28.195Z,1.45
2022-08-04T12:49:03.985Z,1.10
2022-08-04T12:52:07.879Z,1.50
2022-08-04T12:54:32.395Z,1.55
2022-08-04T12:57:04.610Z,1.48
2022-08-04T12:59:45.500Z,1.17
2022-08-04T13:02:31.268Z,1.30
2022-08-04T13:05:08.115Z,1.42
2022-08-04T13:07:46.541Z,1.25
2022-08-04T13:10:18.474Z,1.48
2022-08-04T13:12:58.463Z,1.30
2022-08-04T13:15:29.425Z,1.30
2022-08-04T13:18:04.755Z,1.40
2022-08-04T13:20:37.164Z,1.13
2022-08-04T13:23:09.132Z,1.20
2022-08-04T13:26:44.054Z,1.50
2022-08-04T13:28:34.979Z,1.55
2022-08-04T13:31:08.128Z,1.13
2022-08-04T13:33:42.423Z,1.40
2022-08-04T13:36:11.349Z,1.35
2022-08-04T13:38:51.973Z,1.25
2022-08-04T13:41:24.790Z,1.60
2022-08-04T13:44:17.948Z,1.38
2022-08-04T13:46:56.724Z,1.42
2022-08-04T13:49:48.538Z,1.27
2022-08-04T13:52:13.031Z,1.40
2022-08-04T13:54:48.357Z,1.42
2022-08-04T13:57:45.173Z,1.52
2022-08-04T14:00:29.200Z,1.50
2022-08-04T14:03:23.244Z,1.50
2022-08-04T14:06:10.989Z,1.10
2022-08-04T14:09:08.338Z,1.38
2022-08-04T14:12:10.169Z,1.50
2022-08-04T14:14:32.675Z,1.40
2022-08-04T14:17:16.312Z,1.40
2022-08-04T14:19:53.797Z,1.40
2022-08-04T14:22:30.537Z,1.70
2022-08-04T14:25:17.143Z,1.55
2022-08-04T14:27:56.631Z,1.58
2022-08-04T14:30:38.312Z,1.60
2022-08-04T14:34:03.181Z,1.38
2022-08-04T14:36:01.721Z,1.40
2022-08-04T14:38:54.213Z,1.70
2022-08-04T14:41:43.851Z,1.55
2022-08-04T14:44:12.144Z,1.50
2022-08-04T14:46:56.111Z,1.55
2022-08-04T14:49:24.200Z,1.40
2022-08-04T14:51:59.687Z,1.63
2022-08-04T14:54:45.827Z,1.30
2022-08-04T14:57:16.819Z,1.60
2022-08-04T15:02:30.934Z,1.35
2022-08-04T15:06:00.926Z,1.48
2022-08-04T15:07:53.529Z,1.60
2022-08-04T15:10:21.950Z,1.40
2022-08-04T15:12:50.389Z,1.52
2022-08-04T15:15:35.862Z,1.50
2022-08-04T15:18:04.989Z,1.40
2022-08-04T15:20:35.554Z,1.60
2022-08-04T15:23:08.618Z,1.23
2022-08-04T15:25:51.819Z,1.70
2022-08-04T15:28:25.534Z,1.60
2022-08-04T15:30:56.182Z,1.65
2022-08-04T15:33:33.534Z,1.40
2022-08-04T15:36:42.455Z,1.42
2022-08-04T15:39:20.996Z,1.60
2022-08-04T15:42:16.178Z,1.50
2022-08-04T15:45:20.798Z,1.38
2022-08-04T15:48:12.182Z,1.70
2022-08-04T15:51:03.846Z,1.52
2022-08-04T15:54:03.207Z,1.85
2022-08-04T15:56:29.714Z,1.80
2022-08-04T15:58:58.633Z,1.55
2022-08-04T16:01:28.200Z,1.65
2022-08-04T16:04:00.946Z,1.50
2022-08-04T16:06:30.650Z,1.40
2022-08-04T16:09:05.488Z,1.60
2022-08-04T16:11:35.292Z,1.65
2022-08-04T16:14:03.123Z,1.70
2022-08-04T16:16:40.298Z,1.38
2022-08-04T16:19:13.548Z,1.90
2022-08-04T16:21:51.718Z,1.48
2022-08-04T16:24:37.487Z,1.50
2022-08-04T16:27:11.819Z,1.40
2022-08-04T16:29:43.295Z,1.52
2022-08-04T16:32:24.002Z,2.17
2022-08-04T16:35:04.673Z,1.40
2022-08-04T16:37:40.573Z,1.63
2022-08-04T16:40:38.828Z,1.90
2022-08-04T16:43:18.935Z,1.40
2022-08-04T16:46:18.394Z,1.42
2022-08-04T16:49:07.303Z,1.67
2022-08-04T16:51:35.311Z,1.70
2022-08-04T16:54:05.630Z,1.50
2022-08-04T16:56:35.982Z,1.63
2022-08-04T16:59:12.947Z,1.48
2022-08-04T17:01:53.079Z,1.90
2022-08-04T17:04:33.103Z,1.60
2022-08-04T17:07:05.155Z,1.60
2022-08-04T17:09:33.387Z,1.52
2022-08-04T17:12:03.127Z,1.75
2022-08-04T17:14:32.293Z,1.73
2022-08-04T17:17:08.863Z,1.60
2022-08-04T17:19:38.142Z,1.70
2022-08-04T17:22:10.423Z,1.70
2022-08-04T17:24:41.194Z,1.95
2022-08-04T17:28:08.749Z,1.35
2022-08-04T17:29:59.257Z,1.60
2022-08-04T17:32:27.830Z,1.95
2022-08-04T17:35:03.737Z,1.80
2022-08-04T17:37:38.204Z,1.58
2022-08-04T17:40:17.979Z,1.90
2022-08-04T17:44:02.825Z,1.65
2022-08-04T17:46:29.521Z,1.60
2022-08-04T17:49:07.497Z,1.80
2022-08-04T17:52:04.501Z,1.55
2022-08-04T17:54:36.936Z,1.70
2022-08-04T17:57:33.255Z,1.67
2022-08-04T18:00:01.520Z,2.00
2022-08-04T18:02:34.695Z,2.05
2022-08-04T18:05:11.879Z,1.80
2022-08-04T18:08:38.462Z,2.85
2022-08-04T18:10:55.737Z,1.75
2022-08-04T18:13:28.883Z,2.20
2022-08-04T18:16:05.399Z,2.25
2022-08-04T18:18:35.406Z,2.13
2022-08-04T18:21:06.863Z,1.92
2022-08-04T18:23:35.235Z,2.17
2022-08-04T18:26:23.789Z,2.45
2022-08-04T18:28:52.421Z,2.28
2022-08-04T18:31:21.391Z,2.10
2022-08-04T18:33:56.959Z,2.17
2022-08-04T18:36:33.806Z,2.47
2022-08-04T18:39:11.948Z,2.20
2022-08-04T18:41:51.609Z,2.40
2022-08-04T18:44:32.809Z,2.45
2022-08-04T18:47:29.603Z,2.80
2022-08-04T18:51:01.238Z,2.28
2022-08-04T18:52:48.669Z,3.17
2022-08-04T18:55:51.621Z,2.40
2022-08-04T18:58:12.600Z,2.92
2022-08-04T19:00:45.694Z,2.85
2022-08-04T19:03:16.495Z,3.42
2022-08-04T19:05:51.907Z,2.92
2022-08-04T19:08:34.215Z,3.38
2022-08-04T19:11:36.926Z,3.50
2022-08-04T19:13:58.131Z,3.17
2022-08-04T19:16:32.285Z,3.20
2022-08-04T19:19:05.661Z,3.03
2022-08-04T19:21:59.957Z,3.60
2022-08-04T19:24:32.303Z,3.30
2022-08-04T19:27:08.198Z,3.42
2022-08-04T19:29:40.697Z,3.67
2022-08-04T19:32:16.020Z,3.70
2022-08-04T19:34:47.393Z,5.93
2022-08-04T19:37:56.223Z,8.05
2022-08-04T19:40:13.289Z,6.10
2022-08-04T19:42:43.404Z,5.30
2022-08-04T19:45:15.420Z,4.40
2022-08-04T19:48:17.513Z,3.75
2022-08-04T19:50:34.228Z,4.18
2022-08-04T19:53:04.174Z,4.20
2022-08-04T19:55:49.490Z,4.55
2022-08-04T19:58:21.674Z,4.40
2022-08-04T20:00:55.786Z,4.75
2022-08-04T20:04:09.674Z,3.90
2022-08-04T20:06:13.500Z,3.60
2022-08-04T20:08:48.301Z,3.90
2022-08-04T20:11:18.852Z,4.80
2022-08-04T20:13:54.677Z,4.05
2022-08-04T20:16:28.658Z,5.15
2022-08-04T20:19:03.667Z,5.22
2022-08-04T20:21:53.936Z,7.30
2022-08-04T20:24:40.154Z,6.15
2022-08-04T20:27:15.122Z,8.95
2022-08-04T20:29:51.176Z,8.00
2022-08-04T20:32:22.791Z,8.63
2022-08-04T20:34:53.738Z,7.40
2022-08-04T20:37:24.944Z,6.45
2022-08-04T20:39:55.566Z,6.90
2022-08-04T20:42:33.617Z,7.33
2022-08-04T20:45:02.961Z,6.63
2022-08-04T20:47:35.715Z,6.28
2022-08-04T20:50:08.665Z,6.55
2022-08-04T20:52:39.600Z,6.40
2022-08-04T20:55:09.851Z,6.28
2022-08-04T20:57:48.753Z,6.22
2022-08-04T21:00:30.010Z,6.93
2022-08-04T21:02:59.968Z,6.68
2022-08-04T21:05:31.662Z,5.97
2022-08-04T21:08:00.273Z,6.00
2022-08-04T21:10:30.707Z,6.03
2022-08-04T21:12:59.381Z,6.18
2022-08-04T21:15:57.883Z,5.93
2022-08-04T21:18:16.628Z,6.43
2022-08-04T21:20:47.990Z,6.03
2022-08-04T21:23:16.597Z,5.50
2022-08-04T21:25:49.863Z,5.43
2022-08-04T21:28:20.155Z,6.03
2022-08-04T21:30:54.489Z,5.45
2022-08-04T21:33:49.609Z,5.68
2022-08-04T21:36:19.477Z,5.45
2022-08-04T21:38:51.381Z,6.30
2022-08-04T21:41:24.722Z,5.70
2022-08-04T21:43:55.795Z,6.53
2022-08-04T21:46:24.554Z,5.32
2022-08-04T21:48:52.623Z,5.18
2022-08-04T21:51:58.012Z,5.25
2022-08-04T21:57:03.616Z,5.57
2022-08-04T21:59:31.792Z,5.53
2022-08-04T22:02:01.385Z,4.95
2022-08-04T22:04:30.933Z,6.18
2022-08-04T22:07:03.033Z,5.40
2022-08-04T22:09:38.643Z,5.70
2022-08-04T22:12:12.022Z,5.35
2022-08-04T22:14:41.211Z,5.80
2022-08-04T22:17:13.584Z,5.53
2022-08-04T22:19:54.853Z,5.03
2022-08-04T22:22:29.283Z,5.45
2022-08-04T22:25:12.383Z,6.00
2022-08-04T22:28:02.873Z,4.80
2022-08-04T22:30:37.569Z,5.93
2022-08-04T22:33:09.023Z,5.45
2022-08-04T22:35:44.117Z,5.18
2022-08-04T22:38:28.069Z,5.35
2022-08-04T22:41:14.023Z,5.45
2022-08-04T22:43:42.851Z,4.95
2022-08-04T22:46:24.509Z,5.75
2022-08-04T22:51:22.429Z,5.50
2022-08-04T22:53:51.963Z,5.32
2022-08-04T22:56:38.266Z,5.80
2022-08-04T22:59:11.481Z,5.68
2022-08-04T23:01:59.014Z,5.65
2022-08-04T23:04:31.105Z,6.03
2022-08-04T23:07:00.705Z,6.57
2022-08-04T23:09:50.863Z,6.00
2022-08-04T23:12:25.788Z,6.22
2022-08-04T23:14:59.089Z,5.72
2022-08-04T23:17:28.705Z,6.05
2022-08-04T23:19:58.986Z,6.05
2022-08-04T23:22:41.672Z,6.28
2022-08-04T23:25:17.053Z,5.88
2022-08-04T23:27:48.120Z,6.18
2022-08-04T23:30:29.482Z,6.18
2022-08-04T23:33:02.904Z,5.88
2022-08-04T23:35:34.833Z,6.40
2022-08-04T23:38:31.288Z,5.82
2022-08-04T23:40:54.710Z,6.10
2022-08-04T23:43:23.672Z,6.57
2022-08-04T23:46:04.105Z,5.95
2022-08-04T23:48:40.374Z,7.00
2022-08-04T23:51:15.303Z,6.05
2022-08-04T23:54:02.239Z,5.53
2022-08-04T23:56:35.711Z,6.15
2022-08-04T23:59:17.846Z,5.97
